sensor_id;sensor_type;location;lat;lon;timestamp;P1;durP1;ratioP1;P2;durP2;ratioP2
32108;SDS011;18624;50.042;8.436;2023-05-08T00:00:57;9.25;;;8.40;;
32108;SDS011;18624;50.042;8.436;2023-05-08T00:03:26;8.63;;;7.90;;
32108;SDS011;18624;50.042;8.436;2023-05-08T00:05:53;10.65;;;9.68;;
32108;SDS011;18624;50.042;8.436;2023-05-08T00:08:20;9.95;;;9.05;;
32108;SDS011;18624;50.042;8.436;2023-05-08T00:10:47;9.10;;;8.30;;
32108;SDS011;18624;50.042;8.436;2023-05-08T00:13:14;10.32;;;9.32;;
32108;SDS011;18624;50.042;8.436;2023-05-08T00:15:40;9.63;;;8.82;;
32108;SDS011;18624;50.042;8.436;2023-05-08T00:18:07;11.02;;;9.25;;
32108;SDS011;18624;50.042;8.436;2023-05-08T00:20:33;9.55;;;8.68;;
32108;SDS011;18624;50.042;8.436;2023-05-08T00:22:59;10.65;;;9.45;;
32108;SDS011;18624;50.042;8.436;2023-05-08T00:25:26;10.10;;;9.20;;
32108;SDS011;18624;50.042;8.436;2023-05-08T00:27:52;10.00;;;9.05;;
32108;SDS011;18624;50.042;8.436;2023-05-08T00:30:19;10.88;;;9.05;;
32108;SDS011;18624;50.042;8.436;2023-05-08T00:32:46;9.30;;;8.43;;
32108;SDS011;18624;50.042;8.436;2023-05-08T00:35:12;10.32;;;8.93;;
32108;SDS011;18624;50.042;8.436;2023-05-08T00:37:39;9.30;;;8.38;;
32108;SDS011;18624;50.042;8.436;2023-05-08T00:40:09;12.60;;;10.07;;
32108;SDS011;18624;50.042;8.436;2023-05-08T00:42:37;9.90;;;9.00;;
32108;SDS011;18624;50.042;8.436;2023-05-08T00:45:03;10.02;;;9.13;;
32108;SDS011;18624;50.042;8.436;2023-05-08T00:47:30;9.93;;;9.02;;
32108;SDS011;18624;50.042;8.436;2023-05-08T00:49:57;9.77;;;8.88;;
32108;SDS011;18624;50.042;8.436;2023-05-08T00:52:26;9.55;;;8.57;;
32108;SDS011;18624;50.042;8.436;2023-05-08T00:54:54;9.75;;;8.77;;
32108;SDS011;18624;50.042;8.436;2023-05-08T00:57:21;9.38;;;8.48;;
32108;SDS011;18624;50.042;8.436;2023-05-08T00:59:48;10.75;;;9.30;;
32108;SDS011;18624;50.042;8.436;2023-05-08T01:02:15;11.45;;;9.68;;
32108;SDS011;18624;50.042;8.436;2023-05-08T01:04:41;10.07;;;9.07;;
32108;SDS011;18624;50.042;8.436;2023-05-08T01:07:10;9.98;;;9.00;;
32108;SDS011;18624;50.042;8.436;2023-05-08T01:09:36;9.05;;;8.23;;
32108;SDS011;18624;50.042;8.436;2023-05-08T01:17:52;9.10;;;8.25;;
32108;SDS011;18624;50.042;8.436;2023-05-08T01:20:45;9.30;;;8.40;;
32108;SDS011;18624;50.042;8.436;2023-05-08T01:34:43;11.13;;;10.10;;
32108;SDS011;18624;50.042;8.436;2023-05-08T01:37:16;10.07;;;9.20;;
32108;SDS011;18624;50.042;8.436;2023-05-08T01:39:50;12.17;;;9.77;;
32108;SDS011;18624;50.042;8.436;2023-05-08T01:44:55;11.05;;;8.35;;
32108;SDS011;18624;50.042;8.436;2023-05-08T01:47:26;9.10;;;8.20;;
32108;SDS011;18624;50.042;8.436;2023-05-08T01:50:03;9.55;;;8.55;;
32108;SDS011;18624;50.042;8.436;2023-05-08T01:52:34;10.15;;;9.25;;
32108;SDS011;18624;50.042;8.436;2023-05-08T01:55:08;9.25;;;8.45;;
32108;SDS011;18624;50.042;8.436;2023-05-08T01:57:39;9.93;;;8.98;;
32108;SDS011;18624;50.042;8.436;2023-05-08T02:00:10;9.68;;;8.77;;
32108;SDS011;18624;50.042;8.436;2023-05-08T02:02:38;9.50;;;8.60;;
32108;SDS011;18624;50.042;8.436;2023-05-08T02:05:06;9.50;;;8.52;;
32108;SDS011;18624;50.042;8.436;2023-05-08T02:07:33;9.73;;;8.82;;
32108;SDS011;18624;50.042;8.436;2023-05-08T02:10:03;10.30;;;9.20;;
32108;SDS011;18624;50.042;8.436;2023-05-08T02:12:31;10.50;;;9.45;;
32108;SDS011;18624;50.042;8.436;2023-05-08T02:14:58;9.43;;;8.55;;
32108;SDS011;18624;50.042;8.436;2023-05-08T02:17:26;9.20;;;8.40;;
32108;SDS011;18624;50.042;8.436;2023-05-08T02:19:53;9.05;;;8.23;;
32108;SDS011;18624;50.042;8.436;2023-05-08T02:22:23;8.80;;;8.00;;
32108;SDS011;18624;50.042;8.436;2023-05-08T02:24:51;10.48;;;9.40;;
32108;SDS011;18624;50.042;8.436;2023-05-08T02:27:27;8.80;;;8.00;;
32108;SDS011;18624;50.042;8.436;2023-05-08T02:29:55;9.38;;;8.48;;
32108;SDS011;18624;50.042;8.436;2023-05-08T02:32:23;8.73;;;8.02;;
32108;SDS011;18624;50.042;8.436;2023-05-08T02:34:52;8.70;;;8.00;;
32108;SDS011;18624;50.042;8.436;2023-05-08T02:37:28;9.32;;;8.48;;
32108;SDS011;18624;50.042;8.436;2023-05-08T02:39:56;9.57;;;8.52;;
32108;SDS011;18624;50.042;8.436;2023-05-08T02:42:23;9.68;;;8.68;;
32108;SDS011;18624;50.042;8.436;2023-05-08T02:44:50;9.35;;;8.15;;
32108;SDS011;18624;50.042;8.436;2023-05-08T02:47:20;9.45;;;8.60;;
32108;SDS011;18624;50.042;8.436;2023-05-08T02:49:52;10.55;;;9.32;;
32108;SDS011;18624;50.042;8.436;2023-05-08T02:52:29;9.27;;;7.95;;
32108;SDS011;18624;50.042;8.436;2023-05-08T02:55:02;8.98;;;7.70;;
32108;SDS011;18624;50.042;8.436;2023-05-08T02:57:47;8.95;;;8.05;;
32108;SDS011;18624;50.042;8.436;2023-05-08T03:00:26;9.32;;;8.13;;
32108;SDS011;18624;50.042;8.436;2023-05-08T03:03:00;9.98;;;9.07;;
32108;SDS011;18624;50.042;8.436;2023-05-08T03:05:36;8.88;;;7.97;;
32108;SDS011;18624;50.042;8.436;2023-05-08T03:08:10;8.98;;;8.10;;
32108;SDS011;18624;50.042;8.436;2023-05-08T03:10:40;9.98;;;9.10;;
32108;SDS011;18624;50.042;8.436;2023-05-08T03:13:10;9.23;;;8.43;;
32108;SDS011;18624;50.042;8.436;2023-05-08T03:15:41;10.00;;;8.77;;
32108;SDS011;18624;50.042;8.436;2023-05-08T03:18:11;9.10;;;8.20;;
32108;SDS011;18624;50.042;8.436;2023-05-08T03:20:43;9.15;;;8.27;;
32108;SDS011;18624;50.042;8.436;2023-05-08T03:23:12;8.60;;;7.80;;
32108;SDS011;18624;50.042;8.436;2023-05-08T03:25:41;10.60;;;8.95;;
32108;SDS011;18624;50.042;8.436;2023-05-08T03:28:10;9.38;;;8.20;;
32108;SDS011;18624;50.042;8.436;2023-05-08T03:30:39;10.63;;;9.45;;
32108;SDS011;18624;50.042;8.436;2023-05-08T03:33:09;8.70;;;7.90;;
32108;SDS011;18624;50.042;8.436;2023-05-08T03:35:37;8.85;;;8.07;;
32108;SDS011;18624;50.042;8.436;2023-05-08T03:38:06;8.40;;;7.60;;
32108;SDS011;18624;50.042;8.436;2023-05-08T03:40:34;9.02;;;8.23;;
32108;SDS011;18624;50.042;8.436;2023-05-08T03:43:04;8.40;;;7.70;;
32108;SDS011;18624;50.042;8.436;2023-05-08T03:45:36;9.18;;;8.38;;
32108;SDS011;18624;50.042;8.436;2023-05-08T03:48:04;8.30;;;7.55;;
32108;SDS011;18624;50.042;8.436;2023-05-08T03:50:33;7.90;;;7.28;;
32108;SDS011;18624;50.042;8.436;2023-05-08T03:53:01;8.95;;;8.05;;
32108;SDS011;18624;50.042;8.436;2023-05-08T03:55:28;9.05;;;8.15;;
32108;SDS011;18624;50.042;8.436;2023-05-08T04:00:53;9.50;;;8.63;;
32108;SDS011;18624;50.042;8.436;2023-05-08T04:06:06;8.77;;;8.00;;
32108;SDS011;18624;50.042;8.436;2023-05-08T04:08:40;15.93;;;9.93;;
32108;SDS011;18624;50.042;8.436;2023-05-08T04:13:48;8.70;;;7.90;;
32108;SDS011;18624;50.042;8.436;2023-05-08T04:16:19;10.43;;;9.32;;
32108;SDS011;18624;50.042;8.436;2023-05-08T04:18:49;9.10;;;8.32;;
32108;SDS011;18624;50.042;8.436;2023-05-08T04:21:49;9.95;;;8.95;;
32108;SDS011;18624;50.042;8.436;2023-05-08T04:24:22;9.65;;;8.70;;
32108;SDS011;18624;50.042;8.436;2023-05-08T04:26:52;8.77;;;7.93;;
32108;SDS011;18624;50.042;8.436;2023-05-08T04:29:19;9.48;;;8.52;;
32108;SDS011;18624;50.042;8.436;2023-05-08T04:31:47;8.05;;;7.25;;
32108;SDS011;18624;50.042;8.436;2023-05-08T04:34:16;9.73;;;8.80;;
32108;SDS011;18624;50.042;8.436;2023-05-08T04:36:43;8.95;;;8.07;;
32108;SDS011;18624;50.042;8.436;2023-05-08T04:39:10;9.23;;;8.32;;
32108;SDS011;18624;50.042;8.436;2023-05-08T04:41:37;8.43;;;7.60;;
32108;SDS011;18624;50.042;8.436;2023-05-08T04:44:03;8.18;;;7.30;;
32108;SDS011;18624;50.042;8.436;2023-05-08T04:46:30;8.90;;;8.10;;
32108;SDS011;18624;50.042;8.436;2023-05-08T04:48:57;9.48;;;8.63;;
32108;SDS011;18624;50.042;8.436;2023-05-08T04:51:26;9.23;;;8.32;;
32108;SDS011;18624;50.042;8.436;2023-05-08T04:53:53;8.80;;;8.00;;
32108;SDS011;18624;50.042;8.436;2023-05-08T04:56:19;9.13;;;8.23;;
32108;SDS011;18624;50.042;8.436;2023-05-08T04:58:47;9.80;;;8.82;;
32108;SDS011;18624;50.042;8.436;2023-05-08T05:01:13;10.57;;;9.02;;
32108;SDS011;18624;50.042;8.436;2023-05-08T05:03:40;9.80;;;8.82;;
32108;SDS011;18624;50.042;8.436;2023-05-08T05:06:07;10.05;;;9.02;;
32108;SDS011;18624;50.042;8.436;2023-05-08T05:08:33;9.85;;;8.85;;
32108;SDS011;18624;50.042;8.436;2023-05-08T05:10:59;9.52;;;8.63;;
32108;SDS011;18624;50.042;8.436;2023-05-08T05:13:26;10.43;;;9.45;;
32108;SDS011;18624;50.042;8.436;2023-05-08T05:15:53;9.82;;;8.90;;
32108;SDS011;18624;50.042;8.436;2023-05-08T05:18:21;10.55;;;9.55;;
32108;SDS011;18624;50.042;8.436;2023-05-08T05:20:49;11.77;;;9.45;;
32108;SDS011;18624;50.042;8.436;2023-05-08T05:23:16;10.90;;;9.90;;
32108;SDS011;18624;50.042;8.436;2023-05-08T05:25:43;10.77;;;9.68;;
32108;SDS011;18624;50.042;8.436;2023-05-08T05:28:09;10.43;;;9.45;;
32108;SDS011;18624;50.042;8.436;2023-05-08T05:30:36;11.15;;;8.90;;
32108;SDS011;18624;50.042;8.436;2023-05-08T05:33:02;10.18;;;9.27;;
32108;SDS011;18624;50.042;8.436;2023-05-08T05:35:29;10.48;;;9.45;;
32108;SDS011;18624;50.042;8.436;2023-05-08T05:37:56;12.18;;;9.75;;
32108;SDS011;18624;50.042;8.436;2023-05-08T05:40:22;11.52;;;10.35;;
32108;SDS011;18624;50.042;8.436;2023-05-08T05:42:49;10.45;;;9.43;;
32108;SDS011;18624;50.042;8.436;2023-05-08T05:45:16;10.10;;;8.98;;
32108;SDS011;18624;50.042;8.436;2023-05-08T05:47:44;11.27;;;10.10;;
32108;SDS011;18624;50.042;8.436;2023-05-08T05:50:16;11.20;;;10.20;;
32108;SDS011;18624;50.042;8.436;2023-05-08T05:52:44;10.80;;;9.70;;
32108;SDS011;18624;50.042;8.436;2023-05-08T05:55:11;10.60;;;9.70;;
32108;SDS011;18624;50.042;8.436;2023-05-08T05:57:38;11.60;;;10.07;;
32108;SDS011;18624;50.042;8.436;2023-05-08T06:00:05;10.25;;;9.25;;
32108;SDS011;18624;50.042;8.436;2023-05-08T06:02:39;10.70;;;9.73;;
32108;SDS011;18624;50.042;8.436;2023-05-08T06:05:09;11.77;;;10.60;;
32108;SDS011;18624;50.042;8.436;2023-05-08T06:07:36;11.13;;;10.05;;
32108;SDS011;18624;50.042;8.436;2023-05-08T06:10:03;11.50;;;10.30;;
32108;SDS011;18624;50.042;8.436;2023-05-08T06:12:30;10.95;;;9.95;;
32108;SDS011;18624;50.042;8.436;2023-05-08T06:14:57;10.50;;;9.60;;
32108;SDS011;18624;50.042;8.436;2023-05-08T06:17:24;11.02;;;10.10;;
32108;SDS011;18624;50.042;8.436;2023-05-08T06:19:52;11.05;;;10.05;;
32108;SDS011;18624;50.042;8.436;2023-05-08T06:22:21;10.52;;;9.43;;
32108;SDS011;18624;50.042;8.436;2023-05-08T06:24:51;10.82;;;9.13;;
32108;SDS011;18624;50.042;8.436;2023-05-08T06:27:18;10.90;;;9.90;;
32108;SDS011;18624;50.042;8.436;2023-05-08T06:29:46;10.52;;;9.52;;
32108;SDS011;18624;50.042;8.436;2023-05-08T06:32:16;11.15;;;10.15;;
32108;SDS011;18624;50.042;8.436;2023-05-08T06:34:42;10.32;;;9.35;;
32108;SDS011;18624;50.042;8.436;2023-05-08T06:37:09;10.45;;;9.45;;
32108;SDS011;18624;50.042;8.436;2023-05-08T06:39:35;11.05;;;9.98;;
32108;SDS011;18624;50.042;8.436;2023-05-08T06:42:02;11.68;;;10.48;;
32108;SDS011;18624;50.042;8.436;2023-05-08T06:44:36;10.65;;;9.65;;
32108;SDS011;18624;50.042;8.436;2023-05-08T06:47:02;10.70;;;9.70;;
32108;SDS011;18624;50.042;8.436;2023-05-08T06:49:29;11.15;;;9.98;;
32108;SDS011;18624;50.042;8.436;2023-05-08T06:51:55;10.77;;;9.73;;
32108;SDS011;18624;50.042;8.436;2023-05-08T06:54:23;10.50;;;9.50;;
32108;SDS011;18624;50.042;8.436;2023-05-08T06:56:51;10.75;;;9.65;;
32108;SDS011;18624;50.042;8.436;2023-05-08T06:59:18;11.40;;;9.70;;
32108;SDS011;18624;50.042;8.436;2023-05-08T07:01:44;9.45;;;8.45;;
32108;SDS011;18624;50.042;8.436;2023-05-08T07:04:11;11.02;;;9.73;;
32108;SDS011;18624;50.042;8.436;2023-05-08T07:06:37;10.75;;;9.10;;
32108;SDS011;18624;50.042;8.436;2023-05-08T07:09:03;10.18;;;9.27;;
32108;SDS011;18624;50.042;8.436;2023-05-08T07:11:30;12.43;;;9.80;;
32108;SDS011;18624;50.042;8.436;2023-05-08T07:13:56;11.00;;;9.93;;
32108;SDS011;18624;50.042;8.436;2023-05-08T07:16:23;10.48;;;9.13;;
32108;SDS011;18624;50.042;8.436;2023-05-08T07:18:49;11.70;;;10.60;;
32108;SDS011;18624;50.042;8.436;2023-05-08T07:21:15;10.70;;;9.65;;
32108;SDS011;18624;50.042;8.436;2023-05-08T07:23:43;10.18;;;9.18;;
32108;SDS011;18624;50.042;8.436;2023-05-08T07:26:10;11.27;;;9.38;;
32108;SDS011;18624;50.042;8.436;2023-05-08T07:28:36;9.85;;;8.85;;
32108;SDS011;18624;50.042;8.436;2023-05-08T07:31:03;10.00;;;9.07;;
32108;SDS011;18624;50.042;8.436;2023-05-08T07:33:32;10.77;;;9.68;;
32108;SDS011;18624;50.042;8.436;2023-05-08T07:35:59;8.98;;;8.15;;
32108;SDS011;18624;50.042;8.436;2023-05-08T07:38:26;10.95;;;9.95;;
32108;SDS011;18624;50.042;8.436;2023-05-08T07:40:52;10.25;;;9.35;;
32108;SDS011;18624;50.042;8.436;2023-05-08T07:43:22;11.20;;;10.07;;
32108;SDS011;18624;50.042;8.436;2023-05-08T07:45:49;11.10;;;10.07;;
32108;SDS011;18624;50.042;8.436;2023-05-08T07:48:17;11.85;;;10.02;;
32108;SDS011;18624;50.042;8.436;2023-05-08T07:50:43;12.13;;;11.02;;
32108;SDS011;18624;50.042;8.436;2023-05-08T07:53:09;10.73;;;9.63;;
32108;SDS011;18624;50.042;8.436;2023-05-08T07:55:36;11.23;;;9.75;;
32108;SDS011;18624;50.042;8.436;2023-05-08T07:58:02;11.48;;;10.38;;
32108;SDS011;18624;50.042;8.436;2023-05-08T08:00:28;11.18;;;9.93;;
32108;SDS011;18624;50.042;8.436;2023-05-08T08:02:55;10.90;;;9.82;;
32108;SDS011;18624;50.042;8.436;2023-05-08T08:05:22;10.38;;;9.38;;
32108;SDS011;18624;50.042;8.436;2023-05-08T08:07:48;10.93;;;9.90;;
32108;SDS011;18624;50.042;8.436;2023-05-08T08:10:15;11.23;;;9.65;;
32108;SDS011;18624;50.042;8.436;2023-05-08T08:12:42;11.20;;;10.10;;
32108;SDS011;18624;50.042;8.436;2023-05-08T08:15:08;10.75;;;9.65;;
32108;SDS011;18624;50.042;8.436;2023-05-08T08:17:35;10.57;;;9.57;;
32108;SDS011;18624;50.042;8.436;2023-05-08T08:20:02;9.02;;;8.18;;
32108;SDS011;18624;50.042;8.436;2023-05-08T08:22:29;10.30;;;9.40;;
32108;SDS011;18624;50.042;8.436;2023-05-08T08:24:55;10.52;;;9.57;;
32108;SDS011;18624;50.042;8.436;2023-05-08T08:27:22;10.43;;;9.43;;
32108;SDS011;18624;50.042;8.436;2023-05-08T08:29:49;10.55;;;9.45;;
32108;SDS011;18624;50.042;8.436;2023-05-08T08:32:23;10.25;;;9.25;;
32108;SDS011;18624;50.042;8.436;2023-05-08T08:34:50;10.85;;;9.82;;
32108;SDS011;18624;50.042;8.436;2023-05-08T08:37:16;9.93;;;8.93;;
32108;SDS011;18624;50.042;8.436;2023-05-08T08:39:43;10.23;;;9.27;;
32108;SDS011;18624;50.042;8.436;2023-05-08T08:42:09;10.57;;;9.38;;
32108;SDS011;18624;50.042;8.436;2023-05-08T08:44:37;9.52;;;8.70;;
32108;SDS011;18624;50.042;8.436;2023-05-08T08:47:05;9.75;;;8.85;;
32108;SDS011;18624;50.042;8.436;2023-05-08T08:49:35;11.30;;;10.20;;
32108;SDS011;18624;50.042;8.436;2023-05-08T08:52:14;11.40;;;10.27;;
32108;SDS011;18624;50.042;8.436;2023-05-08T08:54:51;10.68;;;9.63;;
32108;SDS011;18624;50.042;8.436;2023-05-08T08:57:20;9.68;;;8.77;;
32108;SDS011;18624;50.042;8.436;2023-05-08T08:59:48;12.00;;;10.20;;
32108;SDS011;18624;50.042;8.436;2023-05-08T09:02:14;12.10;;;10.90;;
32108;SDS011;18624;50.042;8.436;2023-05-08T09:04:44;16.08;;;12.40;;
32108;SDS011;18624;50.042;8.436;2023-05-08T09:07:11;12.88;;;11.52;;
32108;SDS011;18624;50.042;8.436;2023-05-08T09:09:38;11.38;;;10.32;;
32108;SDS011;18624;50.042;8.436;2023-05-08T09:12:09;11.68;;;10.35;;
32108;SDS011;18624;50.042;8.436;2023-05-08T09:14:37;12.48;;;10.63;;
32108;SDS011;18624;50.042;8.436;2023-05-08T09:17:03;12.23;;;11.05;;
32108;SDS011;18624;50.042;8.436;2023-05-08T09:19:30;13.88;;;10.25;;
32108;SDS011;18624;50.042;8.436;2023-05-08T09:22:00;11.57;;;10.52;;
32108;SDS011;18624;50.042;8.436;2023-05-08T09:24:47;11.52;;;10.50;;
32108;SDS011;18624;50.042;8.436;2023-05-08T09:27:19;11.68;;;10.20;;
32108;SDS011;18624;50.042;8.436;2023-05-08T09:29:56;11.68;;;10.45;;
32108;SDS011;18624;50.042;8.436;2023-05-08T09:32:34;11.48;;;10.38;;
32108;SDS011;18624;50.042;8.436;2023-05-08T09:35:02;11.82;;;10.73;;
32108;SDS011;18624;50.042;8.436;2023-05-08T09:37:29;11.23;;;10.10;;
32108;SDS011;18624;50.042;8.436;2023-05-08T09:42:45;12.85;;;11.48;;
32108;SDS011;18624;50.042;8.436;2023-05-08T09:45:28;13.30;;;12.07;;
32108;SDS011;18624;50.042;8.436;2023-05-08T09:48:00;12.70;;;11.48;;
32108;SDS011;18624;50.042;8.436;2023-05-08T09:50:26;13.93;;;12.57;;
32108;SDS011;18624;50.042;8.436;2023-05-08T09:52:53;13.07;;;11.77;;
32108;SDS011;18624;50.042;8.436;2023-05-08T09:55:20;11.90;;;10.70;;
32108;SDS011;18624;50.042;8.436;2023-05-08T09:57:53;11.50;;;10.20;;
32108;SDS011;18624;50.042;8.436;2023-05-08T10:00:22;12.18;;;10.98;;
32108;SDS011;18624;50.042;8.436;2023-05-08T10:05:27;12.93;;;11.60;;
32108;SDS011;18624;50.042;8.436;2023-05-08T10:07:57;17.42;;;12.23;;
32108;SDS011;18624;50.042;8.436;2023-05-08T10:10:42;10.93;;;9.93;;
32108;SDS011;18624;50.042;8.436;2023-05-08T10:13:08;10.52;;;9.52;;
32108;SDS011;18624;50.042;8.436;2023-05-08T10:15:35;10.80;;;9.73;;
32108;SDS011;18624;50.042;8.436;2023-05-08T10:18:04;12.38;;;11.18;;
32108;SDS011;18624;50.042;8.436;2023-05-08T10:20:32;12.50;;;11.35;;
32108;SDS011;18624;50.042;8.436;2023-05-08T10:23:00;12.65;;;11.45;;
32108;SDS011;18624;50.042;8.436;2023-05-08T10:25:32;12.57;;;11.38;;
32108;SDS011;18624;50.042;8.436;2023-05-08T10:28:17;15.40;;;12.48;;
32108;SDS011;18624;50.042;8.436;2023-05-08T10:30:54;14.43;;;12.02;;
32108;SDS011;18624;50.042;8.436;2023-05-08T10:33:24;11.35;;;10.25;;
32108;SDS011;18624;50.042;8.436;2023-05-08T10:35:56;13.13;;;11.82;;
32108;SDS011;18624;50.042;8.436;2023-05-08T10:38:23;12.00;;;10.88;;
32108;SDS011;18624;50.042;8.436;2023-05-08T10:40:52;12.38;;;11.07;;
32108;SDS011;18624;50.042;8.436;2023-05-08T10:43:25;13.32;;;11.13;;
32108;SDS011;18624;50.042;8.436;2023-05-08T10:45:54;13.52;;;12.23;;
32108;SDS011;18624;50.042;8.436;2023-05-08T10:48:25;13.63;;;12.32;;
32108;SDS011;18624;50.042;8.436;2023-05-08T10:51:16;13.80;;;12.30;;
32108;SDS011;18624;50.042;8.436;2023-05-08T10:53:54;14.73;;;12.80;;
32108;SDS011;18624;50.042;8.436;2023-05-08T10:56:27;14.60;;;13.27;;
32108;SDS011;18624;50.042;8.436;2023-05-08T10:58:54;14.48;;;13.07;;
32108;SDS011;18624;50.042;8.436;2023-05-08T11:01:22;13.23;;;12.07;;
32108;SDS011;18624;50.042;8.436;2023-05-08T11:03:50;15.82;;;14.32;;
32108;SDS011;18624;50.042;8.436;2023-05-08T11:06:40;13.52;;;12.27;;
32108;SDS011;18624;50.042;8.436;2023-05-08T11:09:07;14.40;;;13.15;;
32108;SDS011;18624;50.042;8.436;2023-05-08T11:11:36;15.38;;;13.98;;
32108;SDS011;18624;50.042;8.436;2023-05-08T11:19:18;14.45;;;13.15;;
32108;SDS011;18624;50.042;8.436;2023-05-08T11:24:48;15.77;;;14.27;;
32108;SDS011;18624;50.042;8.436;2023-05-08T11:27:17;15.60;;;14.00;;
32108;SDS011;18624;50.042;8.436;2023-05-08T11:35:49;14.60;;;13.23;;
32108;SDS011;18624;50.042;8.436;2023-05-08T11:38:17;14.70;;;13.23;;
32108;SDS011;18624;50.042;8.436;2023-05-08T11:40:46;16.27;;;13.48;;
32108;SDS011;18624;50.042;8.436;2023-05-08T11:46:01;16.73;;;14.93;;
32108;SDS011;18624;50.042;8.436;2023-05-08T11:48:29;17.30;;;14.07;;
32108;SDS011;18624;50.042;8.436;2023-05-08T11:50:57;15.70;;;14.20;;
32108;SDS011;18624;50.042;8.436;2023-05-08T11:53:25;16.10;;;14.60;;
32108;SDS011;18624;50.042;8.436;2023-05-08T11:55:51;15.77;;;14.07;;
32108;SDS011;18624;50.042;8.436;2023-05-08T11:58:18;16.10;;;14.60;;
32108;SDS011;18624;50.042;8.436;2023-05-08T12:00:45;15.18;;;13.68;;
32108;SDS011;18624;50.042;8.436;2023-05-08T12:03:13;15.90;;;14.30;;
32108;SDS011;18624;50.042;8.436;2023-05-08T12:05:40;15.73;;;14.23;;
32108;SDS011;18624;50.042;8.436;2023-05-08T12:08:07;15.00;;;13.50;;
32108;SDS011;18624;50.042;8.436;2023-05-08T12:10:38;15.68;;;14.07;;
32108;SDS011;18624;50.042;8.436;2023-05-08T12:13:18;14.07;;;12.68;;
32108;SDS011;18624;50.042;8.436;2023-05-08T12:15:53;15.05;;;13.13;;
32108;SDS011;18624;50.042;8.436;2023-05-08T12:18:22;14.07;;;12.68;;
32108;SDS011;18624;50.042;8.436;2023-05-08T12:20:50;15.20;;;13.68;;
32108;SDS011;18624;50.042;8.436;2023-05-08T12:23:18;14.43;;;13.05;;
32108;SDS011;18624;50.042;8.436;2023-05-08T12:25:44;14.95;;;12.27;;
32108;SDS011;18624;50.042;8.436;2023-05-08T12:28:11;12.82;;;11.50;;
32108;SDS011;18624;50.042;8.436;2023-05-08T12:30:37;12.73;;;11.63;;
32108;SDS011;18624;50.042;8.436;2023-05-08T12:33:04;14.25;;;12.88;;
32108;SDS011;18624;50.042;8.436;2023-05-08T12:35:31;14.68;;;12.30;;
32108;SDS011;18624;50.042;8.436;2023-05-08T12:38:02;13.10;;;11.70;;
32108;SDS011;18624;50.042;8.436;2023-05-08T12:40:31;12.95;;;11.75;;
32108;SDS011;18624;50.042;8.436;2023-05-08T12:43:05;12.85;;;11.07;;
32108;SDS011;18624;50.042;8.436;2023-05-08T12:45:35;13.93;;;12.57;;
32108;SDS011;18624;50.042;8.436;2023-05-08T12:50:36;12.05;;;10.85;;
32108;SDS011;18624;50.042;8.436;2023-05-08T12:53:07;12.88;;;11.70;;
32108;SDS011;18624;50.042;8.436;2023-05-08T12:55:36;12.95;;;11.75;;
32108;SDS011;18624;50.042;8.436;2023-05-08T12:58:07;11.80;;;10.70;;
32108;SDS011;18624;50.042;8.436;2023-05-08T13:00:41;10.60;;;9.63;;
32108;SDS011;18624;50.042;8.436;2023-05-08T13:03:10;12.57;;;11.43;;
32108;SDS011;18624;50.042;8.436;2023-05-08T13:05:43;12.32;;;11.23;;
32108;SDS011;18624;50.042;8.436;2023-05-08T13:08:10;12.20;;;11.02;;
32108;SDS011;18624;50.042;8.436;2023-05-08T13:10:44;12.25;;;11.02;;
32108;SDS011;18624;50.042;8.436;2023-05-08T13:13:12;13.60;;;10.95;;
32108;SDS011;18624;50.042;8.436;2023-05-08T13:15:39;11.32;;;10.30;;
32108;SDS011;18624;50.042;8.436;2023-05-08T13:18:05;12.32;;;11.15;;
32108;SDS011;18624;50.042;8.436;2023-05-08T13:20:35;11.43;;;10.32;;
32108;SDS011;18624;50.042;8.436;2023-05-08T13:23:02;13.75;;;12.40;;
32108;SDS011;18624;50.042;8.436;2023-05-08T13:25:29;12.73;;;11.52;;
32108;SDS011;18624;50.042;8.436;2023-05-08T13:27:56;14.32;;;12.88;;
32108;SDS011;18624;50.042;8.436;2023-05-08T13:30:23;15.88;;;13.68;;
32108;SDS011;18624;50.042;8.436;2023-05-08T13:32:50;12.60;;;11.30;;
32108;SDS011;18624;50.042;8.436;2023-05-08T13:35:17;13.63;;;12.40;;
32108;SDS011;18624;50.042;8.436;2023-05-08T13:37:44;12.80;;;11.40;;
32108;SDS011;18624;50.042;8.436;2023-05-08T13:40:11;15.45;;;13.85;;
32108;SDS011;18624;50.042;8.436;2023-05-08T13:42:38;14.35;;;12.88;;
32108;SDS011;18624;50.042;8.436;2023-05-08T13:45:05;13.65;;;12.27;;
32108;SDS011;18624;50.042;8.436;2023-05-08T13:47:32;15.23;;;13.82;;
32108;SDS011;18624;50.042;8.436;2023-05-08T13:49:59;14.57;;;13.18;;
32108;SDS011;18624;50.042;8.436;2023-05-08T13:52:26;13.65;;;12.43;;
32108;SDS011;18624;50.042;8.436;2023-05-08T13:54:55;16.27;;;14.02;;
32108;SDS011;18624;50.042;8.436;2023-05-08T13:57:21;14.45;;;13.02;;
32108;SDS011;18624;50.042;8.436;2023-05-08T13:59:48;14.73;;;13.27;;
32108;SDS011;18624;50.042;8.436;2023-05-08T14:02:14;15.70;;;14.27;;
32108;SDS011;18624;50.042;8.436;2023-05-08T14:04:41;14.68;;;13.32;;
32108;SDS011;18624;50.042;8.436;2023-05-08T14:07:07;18.63;;;16.73;;
32108;SDS011;18624;50.042;8.436;2023-05-08T14:09:33;16.60;;;14.98;;
32108;SDS011;18624;50.042;8.436;2023-05-08T14:12:00;15.68;;;14.18;;
32108;SDS011;18624;50.042;8.436;2023-05-08T14:14:26;15.07;;;13.57;;
32108;SDS011;18624;50.042;8.436;2023-05-08T14:16:52;15.73;;;14.25;;
32108;SDS011;18624;50.042;8.436;2023-05-08T14:19:19;15.02;;;13.50;;
32108;SDS011;18624;50.042;8.436;2023-05-08T14:21:45;14.05;;;12.43;;
32108;SDS011;18624;50.042;8.436;2023-05-08T14:24:12;15.98;;;14.55;;
32108;SDS011;18624;50.042;8.436;2023-05-08T14:26:38;14.93;;;13.45;;
32108;SDS011;18624;50.042;8.436;2023-05-08T14:29:04;16.00;;;14.35;;
32108;SDS011;18624;50.042;8.436;2023-05-08T14:31:31;13.07;;;11.77;;
32108;SDS011;18624;50.042;8.436;2023-05-08T14:33:57;13.48;;;12.07;;
32108;SDS011;18624;50.042;8.436;2023-05-08T14:36:24;14.20;;;12.90;;
32108;SDS011;18624;50.042;8.436;2023-05-08T14:38:50;16.17;;;13.77;;
32108;SDS011;18624;50.042;8.436;2023-05-08T14:41:16;15.55;;;13.98;;
32108;SDS011;18624;50.042;8.436;2023-05-08T14:43:43;15.27;;;13.98;;
32108;SDS011;18624;50.042;8.436;2023-05-08T14:46:09;14.35;;;13.05;;
32108;SDS011;18624;50.042;8.436;2023-05-08T14:48:35;13.18;;;11.88;;
32108;SDS011;18624;50.042;8.436;2023-05-08T14:51:02;13.32;;;12.13;;
32108;SDS011;18624;50.042;8.436;2023-05-08T14:53:28;14.93;;;13.43;;
32108;SDS011;18624;50.042;8.436;2023-05-08T14:55:55;12.75;;;11.57;;
32108;SDS011;18624;50.042;8.436;2023-05-08T14:58:21;14.82;;;13.25;;
32108;SDS011;18624;50.042;8.436;2023-05-08T15:00:48;14.32;;;12.82;;
32108;SDS011;18624;50.042;8.436;2023-05-08T15:03:14;15.50;;;14.00;;
32108;SDS011;18624;50.042;8.436;2023-05-08T15:05:41;15.13;;;13.68;;
32108;SDS011;18624;50.042;8.436;2023-05-08T15:08:08;16.23;;;14.75;;
32108;SDS011;18624;50.042;8.436;2023-05-08T15:10:35;15.30;;;13.82;;
32108;SDS011;18624;50.042;8.436;2023-05-08T15:13:01;15.90;;;14.30;;
32108;SDS011;18624;50.042;8.436;2023-05-08T15:15:28;14.55;;;13.23;;
32108;SDS011;18624;50.042;8.436;2023-05-08T15:17:54;15.35;;;12.98;;
32108;SDS011;18624;50.042;8.436;2023-05-08T15:20:21;14.55;;;13.25;;
32108;SDS011;18624;50.042;8.436;2023-05-08T15:22:48;14.63;;;13.23;;
32108;SDS011;18624;50.042;8.436;2023-05-08T15:25:14;14.32;;;13.02;;
32108;SDS011;18624;50.042;8.436;2023-05-08T15:27:41;15.20;;;13.65;;
32108;SDS011;18624;50.042;8.436;2023-05-08T15:30:08;14.82;;;13.18;;
32108;SDS011;18624;50.042;8.436;2023-05-08T15:32:34;12.25;;;11.20;;